Time;durP1;ratioP1;P1;durP2;ratioP2;P2;SDS_P1;SDS_P2;PMS_P1;PMS_P2;Temp;Humidity;BMP_temperature;BMP_pressure;BME280_temperature;BME280_humidity;BME280_pressure;Samples;Min_cycle;Max_cycle;Signal;HPM_P1;HPM_P2
2024/01/24 00:00:06;;;;;;;1.33;0.80;;;18.80;57.30;;;;;;4960159;28;20202;-76
2024/01/24 00:02:36;;;;;;;0.70;0.70;;;18.80;57.20;;;;;;4966750;28;20202;-76
2024/01/24 00:05:02;;;;;;;1.52;0.80;;;18.80;57.20;;;;;;4974011;28;20218;-75
2024/01/24 00:07:28;;;;;;;1.65;0.80;;;18.80;57.20;;;;;;4972761;28;20565;-76
2024/01/24 00:09:53;;;;;;;1.42;0.70;;;18.80;57.20;;;;;;4975980;28;20523;-76
2024/01/24 00:12:19;;;;;;;1.77;1.00;;;18.80;57.30;;;;;;4966124;28;20197;-76
2024/01/24 00:14:45;;;;;;;2.25;0.90;;;18.80;57.30;;;;;;4990096;28;20209;-75
2024/01/24 00:17:11;;;;;;;1.00;0.90;;;18.80;57.30;;;;;;4970810;28;20204;-75
2024/01/24 00:19:37;;;;;;;2.08;0.90;;;18.80;57.30;;;;;;4974749;28;20190;-75
2024/01/24 00:22:03;;;;;;;0.50;0.50;;;18.80;57.30;;;;;;4974320;28;20305;-75
2024/01/24 00:24:29;;;;;;;0.98;0.70;;;18.80;57.30;;;;;;4955850;28;20218;-76
2024/01/24 00:26:54;;;;;;;1.83;1.10;;;18.80;57.30;;;;;;4974211;28;20196;-76
2024/01/24 00:29:20;;;;;;;1.60;0.68;;;18.80;57.30;;;;;;4957988;28;20193;-75
2024/01/24 00:31:48;;;;;;;0.57;0.57;;;18.80;57.30;;;;;;4974269;28;20664;-76
2024/01/24 00:34:13;;;;;;;1.02;0.65;;;18.80;57.30;;;;;;4974833;28;20205;-76
2024/01/24 00:36:39;;;;;;;1.58;0.82;;;18.80;57.30;;;;;;4973792;28;20194;-75
2024/01/24 00:39:07;;;;;;;0.95;0.63;;;18.80;57.30;;;;;;4973759;28;20185;-76
2024/01/24 00:41:33;;;;;;;0.93;0.80;;;18.80;57.30;;;;;;4973172;28;20193;-76
2024/01/24 00:43:59;;;;;;;1.13;0.75;;;18.80;57.30;;;;;;4973166;28;20213;-76
2024/01/24 00:46:25;;;;;;;1.90;0.70;;;18.80;57.30;;;;;;4972965;28;20237;-76
2024/01/24 00:48:51;;;;;;;0.50;0.50;;;18.80;57.30;;;;;;4954188;28;20333;-76
2024/01/24 00:51:16;;;;;;;1.05;0.93;;;18.80;57.30;;;;;;4970067;28;20197;-76
2024/01/24 00:53:51;;;;;;;0.70;0.70;;;18.80;57.30;;;;;;4972403;28;20192;-76
2024/01/24 00:56:17;;;;;;;1.38;0.70;;;18.80;57.30;;;;;;4954205;28;20197;-76
2024/01/24 00:58:43;;;;;;;1.08;0.98;;;18.80;57.30;;;;;;4969546;28;20193;-76
2024/01/24 01:01:10;;;;;;;0.93;0.60;;;18.80;57.40;;;;;;4968864;28;20209;-76
2024/01/24 01:03:35;;;;;;;0.90;0.70;;;18.80;57.30;;;;;;4972836;28;20209;-76
2024/01/24 01:06:01;;;;;;;0.82;0.80;;;18.80;57.30;;;;;;4954212;28;20210;-76
2024/01/24 01:08:27;;;;;;;0.77;0.70;;;18.80;57.30;;;;;;4970592;28;20186;-76
2024/01/24 01:10:52;;;;;;;1.40;0.98;;;18.80;57.30;;;;;;4969671;28;20527;-76
2024/01/24 01:13:18;;;;;;;0.52;0.52;;;18.80;57.30;;;;;;4953464;28;20206;-76
2024/01/24 01:15:44;;;;;;;0.57;0.50;;;18.80;57.30;;;;;;4981192;28;20209;-76
2024/01/24 01:18:10;;;;;;;0.55;0.50;;;18.80;57.40;;;;;;4973100;28;20217;-75
2024/01/24 01:20:36;;;;;;;1.40;0.75;;;18.80;57.40;;;;;;4956407;28;20202;-75
2024/01/24 01:23:03;;;;;;;1.38;0.50;;;18.80;57.30;;;;;;4972520;28;20245;-76
2024/01/24 01:25:29;;;;;;;0.68;0.60;;;18.80;57.30;;;;;;4973203;28;20214;-76
2024/01/24 01:27:55;;;;;;;0.80;0.80;;;18.80;58.00;;;;;;4953842;28;20181;-76
2024/01/24 01:30:23;;;;;;;0.70;0.50;;;18.80;57.30;;;;;;4969834;28;20200;-76
2024/01/24 01:32:49;;;;;;;1.30;0.80;;;18.80;57.30;;;;;;4956535;28;20589;-76
2024/01/24 01:35:15;;;;;;;0.85;0.52;;;18.80;57.30;;;;;;4956666;28;20255;-76
2024/01/24 01:37:41;;;;;;;0.80;0.70;;;18.80;57.30;;;;;;4956477;28;20189;-76
2024/01/24 01:40:07;;;;;;;0.93;0.80;;;18.80;57.30;;;;;;4972319;28;20192;-75
2024/01/24 01:42:33;;;;;;;1.48;0.82;;;18.80;57.30;;;;;;4970818;28;20198;-76
2024/01/24 01:44:59;;;;;;;1.27;0.68;;;18.80;57.30;;;;;;4971781;28;20216;-76
2024/01/24 01:47:25;;;;;;;1.48;0.80;;;18.80;57.40;;;;;;4970763;28;20201;-77
2024/01/24 01:49:52;;;;;;;1.17;0.55;;;18.80;57.30;;;;;;4972196;28;20576;-76
2024/01/24 01:52:20;;;;;;;0.60;0.60;;;18.80;57.30;;;;;;4971756;28;20193;-76
2024/01/24 01:54:49;;;;;;;1.00;0.70;;;18.80;57.30;;;;;;4964188;28;20206;-76
2024/01/24 01:57:15;;;;;;;1.02;0.77;;;18.80;57.40;;;;;;4953368;28;20273;-75
2024/01/24 01:59:41;;;;;;;1.05;0.70;;;18.80;57.40;;;;;;4955742;28;20254;-76
2024/01/24 02:02:09;;;;;;;0.77;0.63;;;18.80;57.30;;;;;;4956095;28;20181;-76
2024/01/24 02:04:35;;;;;;;0.70;0.70;;;18.80;57.30;;;;;;4971750;28;20288;-76
2024/01/24 02:07:02;;;;;;;1.00;0.60;;;18.80;57.40;;;;;;4953843;28;20186;-76
2024/01/24 02:09:29;;;;;;;1.60;0.70;;;18.80;57.30;;;;;;4972710;28;20196;-76
2024/01/24 02:11:55;;;;;;;0.70;0.70;;;18.80;57.30;;;;;;4956038;28;20189;-75
2024/01/24 02:14:21;;;;;;;0.65;0.65;;;18.80;57.30;;;;;;4961927;28;20205;-76
2024/01/24 02:16:46;;;;;;;0.80;0.70;;;18.70;57.20;;;;;;4964800;28;20756;-76
2024/01/24 02:19:12;;;;;;;1.27;0.80;;;18.80;57.30;;;;;;4952791;28;20178;-75
2024/01/24 02:21:38;;;;;;;0.70;0.60;;;18.80;57.30;;;;;;4971497;28;20218;-75
2024/01/24 02:24:22;;;;;;;0.80;0.60;;;18.80;57.30;;;;;;4987267;28;20284;-76
2024/01/24 02:26:48;;;;;;;0.90;0.68;;;18.80;57.30;;;;;;4963913;28;20640;-76
2024/01/24 02:29:14;;;;;;;1.17;0.70;;;18.80;57.30;;;;;;4972005;28;20324;-76
2024/01/24 02:31:39;;;;;;;1.35;0.70;;;18.80;57.30;;;;;;4970336;28;20280;-75
2024/01/24 02:34:05;;;;;;;1.00;0.80;;;18.80;57.40;;;;;;4956527;28;20197;-76
2024/01/24 02:36:31;;;;;;;0.90;0.55;;;18.80;57.40;;;;;;4972091;28;20205;-76
2024/01/24 02:38:57;;;;;;;0.93;0.68;;;18.80;57.30;;;;;;4971223;28;20189;-76
2024/01/24 02:41:23;;;;;;;1.02;0.60;;;18.80;57.40;;;;;;4967752;28;20198;-76
2024/01/24 02:43:49;;;;;;;0.85;0.75;;;18.80;57.30;;;;;;4955553;28;20220;-76
2024/01/24 02:46:14;;;;;;;0.70;0.70;;;18.80;57.40;;;;;;4952153;28;20218;-76
2024/01/24 02:48:40;;;;;;;0.75;0.55;;;18.80;57.40;;;;;;4971324;28;20220;-75
2024/01/24 02:51:06;;;;;;;0.60;0.57;;;18.80;57.40;;;;;;4971908;28;20192;-76
2024/01/24 02:53:32;;;;;;;0.95;0.50;;;18.80;57.40;;;;;;4971147;28;20244;-76
2024/01/24 02:55:57;;;;;;;0.52;0.40;;;18.80;57.30;;;;;;4952358;28;20214;-76
2024/01/24 02:58:23;;;;;;;0.85;0.70;;;18.80;57.30;;;;;;4953016;28;20190;-75
2024/01/24 03:00:49;;;;;;;1.48;0.68;;;18.80;57.30;;;;;;4970566;28;20198;-76
2024/01/24 03:03:14;;;;;;;0.80;0.70;;;18.80;57.40;;;;;;4972576;28;20205;-76
2024/01/24 03:05:40;;;;;;;1.00;0.70;;;18.80;57.40;;;;;;4969962;28;20261;-76
2024/01/24 03:08:06;;;;;;;0.93;0.65;;;18.80;57.40;;;;;;4955729;28;20196;-76
2024/01/24 03:10:32;;;;;;;1.85;0.85;;;18.80;57.40;;;;;;4971553;28;20209;-76
2024/01/24 03:12:58;;;;;;;0.90;0.60;;;18.80;57.40;;;;;;4971456;28;20189;-76
2024/01/24 03:15:25;;;;;;;0.88;0.65;;;18.80;57.40;;;;;;4960874;28;20210;-76
2024/01/24 03:17:51;;;;;;;1.25;0.70;;;18.80;57.30;;;;;;4972283;28;20210;-76
2024/01/24 03:20:17;;;;;;;1.42;0.77;;;18.80;57.40;;;;;;4969725;28;20281;-76
2024/01/24 03:22:43;;;;;;;0.80;0.80;;;18.80;57.40;;;;;;4974150;28;20201;-76
2024/01/24 03:25:11;;;;;;;0.95;0.60;;;18.80;57.40;;;;;;4971507;28;20293;-76
2024/01/24 03:27:37;;;;;;;0.68;0.55;;;18.80;57.40;;;;;;4973953;28;20193;-76
2024/01/24 03:30:05;;;;;;;0.60;0.60;;;18.80;57.40;;;;;;4973901;28;20182;-76
2024/01/24 03:32:31;;;;;;;0.88;0.65;;;18.80;57.40;;;;;;4958601;28;20193;-76
2024/01/24 03:35:01;;;;;;;1.13;0.70;;;18.80;57.40;;;;;;4955559;28;20206;-76
2024/01/24 03:37:27;;;;;;;1.20;0.70;;;18.80;57.40;;;;;;4986978;28;20240;-76
2024/01/24 03:39:52;;;;;;;0.73;0.57;;;18.70;57.30;;;;;;4972562;28;20209;-76
2024/01/24 03:42:18;;;;;;;1.42;0.80;;;18.70;57.30;;;;;;4955626;28;20654;-76
2024/01/24 03:44:44;;;;;;;0.70;0.60;;;18.70;57.20;;;;;;4958527;28;20225;-76
2024/01/24 03:47:10;;;;;;;0.70;0.55;;;18.70;57.30;;;;;;4973423;28;20205;-76
2024/01/24 03:49:36;;;;;;;0.88;0.88;;;18.70;57.30;;;;;;4961198;28;20192;-76
2024/01/24 03:52:03;;;;;;;0.75;0.75;;;18.70;57.30;;;;;;4972790;28;20202;-76
2024/01/24 03:54:28;;;;;;;1.40;0.70;;;18.70;57.30;;;;;;4973814;28;20675;-76
2024/01/24 03:56:55;;;;;;;1.10;0.93;;;18.70;57.40;;;;;;4971968;28;20201;-76
2024/01/24 03:59:21;;;;;;;1.00;0.75;;;18.70;57.40;;;;;;4969835;28;20258;-76
2024/01/24 04:01:46;;;;;;;1.00;0.90;;;18.70;57.30;;;;;;4957009;28;20656;-76
2024/01/24 04:04:12;;;;;;;1.30;0.70;;;18.70;57.30;;;;;;4971354;28;20229;-76
2024/01/24 04:06:38;;;;;;;0.68;0.68;;;18.70;57.30;;;;;;4963963;28;20206;-76
2024/01/24 04:09:04;;;;;;;0.43;0.43;;;18.70;57.30;;;;;;4973114;28;20289;-76
2024/01/24 04:11:30;;;;;;;1.13;0.70;;;18.70;57.30;;;;;;4972905;28;20193;-76
2024/01/24 04:13:58;;;;;;;1.40;0.70;;;18.70;57.30;;;;;;4973755;28;20186;-76
2024/01/24 04:16:24;;;;;;;1.20;0.60;;;18.70;57.30;;;;;;4962235;28;20195;-76
2024/01/24 04:18:50;;;;;;;1.00;0.70;;;18.70;57.20;;;;;;4972511;28;20186;-76
2024/01/24 04:21:16;;;;;;;0.80;0.70;;;18.70;57.20;;;;;;4954641;28;20240;-76
2024/01/24 04:23:43;;;;;;;0.80;0.80;;;18.70;57.30;;;;;;4973393;28;20284;-76
2024/01/24 04:26:09;;;;;;;0.82;0.70;;;18.80;57.40;;;;;;4970701;28;20245;-76
2024/01/24 04:28:35;;;;;;;1.05;0.90;;;18.70;57.30;;;;;;4971135;28;20208;-76
2024/01/24 04:31:01;;;;;;;0.68;0.68;;;18.70;57.30;;;;;;4955721;28;20178;-76
2024/01/24 04:33:27;;;;;;;1.05;0.65;;;18.70;57.30;;;;;;4971803;28;20239;-76
2024/01/24 04:35:55;;;;;;;1.45;0.68;;;18.70;57.30;;;;;;4989850;28;20220;-76
2024/01/24 04:38:22;;;;;;;0.80;0.60;;;18.70;57.30;;;;;;4972105;28;20201;-76
2024/01/24 04:40:47;;;;;;;0.90;0.50;;;18.70;57.40;;;;;;4976768;28;20660;-76
2024/01/24 04:43:13;;;;;;;1.02;0.70;;;18.70;57.30;;;;;;4973393;28;20197;-76
2024/01/24 04:45:39;;;;;;;0.60;0.60;;;18.70;57.30;;;;;;4957365;28;20214;-76
2024/01/24 04:48:06;;;;;;;0.50;0.50;;;18.70;57.30;;;;;;4971608;28;20205;-76
2024/01/24 04:50:32;;;;;;;0.65;0.57;;;18.70;57.30;;;;;;4972744;28;20194;-77
2024/01/24 04:52:57;;;;;;;0.73;0.73;;;18.70;57.30;;;;;;4971726;28;20232;-76
2024/01/24 04:55:23;;;;;;;0.65;0.50;;;18.70;57.40;;;;;;4961109;28;20233;-76
2024/01/24 04:57:49;;;;;;;1.02;0.60;;;18.70;57.40;;;;;;4951799;28;20194;-76
2024/01/24 05:00:16;;;;;;;1.00;0.73;;;18.70;57.40;;;;;;4971479;28;20205;-76
2024/01/24 05:02:41;;;;;;;0.60;0.55;;;18.70;57.40;;;;;;4973546;28;20248;-77
2024/01/24 05:05:08;;;;;;;0.93;0.63;;;18.70;57.40;;;;;;4972422;28;20213;-76
2024/01/24 05:07:34;;;;;;;0.60;0.57;;;18.70;57.40;;;;;;4956122;28;20241;-76
2024/01/24 05:10:03;;;;;;;0.60;0.40;;;18.70;57.30;;;;;;4957401;28;20190;-76
2024/01/24 05:12:29;;;;;;;0.55;0.50;;;18.70;57.40;;;;;;4956989;28;20197;-76
2024/01/24 05:14:56;;;;;;;0.52;0.50;;;18.70;57.40;;;;;;4969623;28;20218;-76
2024/01/24 05:17:21;;;;;;;0.90;0.55;;;18.70;57.30;;;;;;4970301;28;20197;-76
2024/01/24 05:19:48;;;;;;;0.52;0.52;;;18.70;57.30;;;;;;4987477;28;20202;-72
2024/01/24 05:22:14;;;;;;;0.90;0.60;;;18.70;57.30;;;;;;4956347;28;20198;-73
2024/01/24 05:24:44;;;;;;;0.88;0.60;;;18.70;57.30;;;;;;4955978;28;20217;-72
2024/01/24 05:27:10;;;;;;;0.70;0.70;;;18.70;57.30;;;;;;4970403;28;20216;-71
2024/01/24 05:29:36;;;;;;;0.68;0.60;;;18.70;57.30;;;;;;4956398;28;20185;-72
2024/01/24 05:32:02;;;;;;;0.65;0.52;;;18.70;57.30;;;;;;4972562;28;20193;-72
2024/01/24 05:34:28;;;;;;;1.92;0.77;;;18.70;57.30;;;;;;4972188;28;20292;-72
2024/01/24 05:36:54;;;;;;;0.50;0.50;;;18.70;57.40;;;;;;4990469;28;20185;-71
2024/01/24 05:39:20;;;;;;;0.88;0.65;;;18.70;57.40;;;;;;4972272;28;20201;-72
2024/01/24 05:41:45;;;;;;;0.50;0.50;;;18.70;57.40;;;;;;4972537;28;20185;-72
2024/01/24 05:44:11;;;;;;;0.50;0.50;;;18.70;57.40;;;;;;4953153;28;20215;-72
2024/01/24 05:46:37;;;;;;;0.93;0.70;;;18.70;57.40;;;;;;4954774;28;20221;-72
2024/01/24 05:49:02;;;;;;;0.90;0.60;;;18.70;57.40;;;;;;4970876;28;20200;-72
2024/01/24 05:51:28;;;;;;;0.73;0.60;;;18.70;57.40;;;;;;4952846;28;20197;-72
2024/01/24 05:53:54;;;;;;;0.65;0.65;;;18.70;57.40;;;;;;4972234;28;20178;-72
2024/01/24 05:56:20;;;;;;;0.60;0.60;;;18.70;57.40;;;;;;4972314;28;20205;-72
2024/01/24 05:58:46;;;;;;;0.50;0.50;;;18.70;57.50;;;;;;4972472;28;20193;-72
2024/01/24 06:01:12;;;;;;;0.90;0.70;;;18.70;57.40;;;;;;4956274;28;20205;-72
2024/01/24 06:03:41;;;;;;;0.70;0.60;;;18.70;57.40;;;;;;4961004;28;20193;-74
2024/01/24 06:06:07;;;;;;;0.80;0.80;;;18.70;57.40;;;;;;4970052;28;20221;-72
2024/01/24 06:08:33;;;;;;;0.60;0.60;;;18.70;57.40;;;;;;4953014;28;20222;-71
2024/01/24 06:10:59;;;;;;;0.70;0.70;;;18.70;57.40;;;;;;4969937;28;20639;-72
2024/01/24 06:13:25;;;;;;;0.57;0.57;;;18.70;57.50;;;;;;4970890;28;20185;-72
2024/01/24 06:15:51;;;;;;;0.47;0.47;;;18.70;57.50;;;;;;4982854;28;20305;-68
2024/01/24 06:18:18;;;;;;;0.75;0.75;;;18.70;57.50;;;;;;4957601;28;20185;-72
2024/01/24 06:20:45;;;;;;;0.93;0.52;;;18.70;57.50;;;;;;4959868;28;20198;-74
2024/01/24 06:23:12;;;;;;;0.68;0.60;;;18.70;57.50;;;;;;4955575;28;20272;-75
2024/01/24 06:25:38;;;;;;;0.93;0.60;;;18.70;57.50;;;;;;4971331;28;20224;-74
2024/01/24 06:28:05;;;;;;;1.95;0.82;;;18.70;57.50;;;;;;4968470;28;20206;-74
2024/01/24 06:30:30;;;;;;;0.75;0.70;;;18.70;57.60;;;;;;4983851;28;20189;-75
2024/01/24 06:32:57;;;;;;;1.20;0.70;;;18.70;57.60;;;;;;4968862;28;20204;-75
2024/01/24 06:35:23;;;;;;;0.70;0.70;;;18.70;57.60;;;;;;4967719;28;20221;-75
2024/01/24 06:37:51;;;;;;;1.17;0.52;;;18.70;58.20;;;;;;4971568;28;20288;-75
2024/01/24 06:40:19;;;;;;;1.50;0.70;;;18.70;57.60;;;;;;4969135;28;20197;-75
2024/01/24 06:42:45;;;;;;;0.63;0.60;;;18.70;57.60;;;;;;4951288;28;20198;-75
2024/01/24 06:45:11;;;;;;;1.25;0.80;;;18.70;57.60;;;;;;4969002;28;20241;-75
2024/01/24 06:47:37;;;;;;;1.27;0.77;;;18.70;57.60;;;;;;4966882;28;20312;-75
2024/01/24 06:50:07;;;;;;;1.17;0.70;;;18.80;57.70;;;;;;4971078;28;20268;-75
2024/01/24 06:52:33;;;;;;;1.45;0.70;;;18.70;57.70;;;;;;4969427;28;20197;-75
2024/01/24 06:54:59;;;;;;;0.52;0.52;;;18.80;57.70;;;;;;4984824;28;20214;-75
2024/01/24 06:57:25;;;;;;;0.90;0.70;;;18.80;57.70;;;;;;4952877;28;20188;-75
2024/01/24 06:59:51;;;;;;;1.02;0.70;;;18.80;57.70;;;;;;4968974;28;20205;-75
2024/01/24 07:02:16;;;;;;;1.27;0.68;;;18.80;57.70;;;;;;4971587;28;20202;-75
2024/01/24 07:04:42;;;;;;;0.77;0.70;;;18.80;57.80;;;;;;4970763;28;20274;-75
2024/01/24 07:07:08;;;;;;;0.68;0.68;;;18.80;57.80;;;;;;4969069;28;20225;-75
2024/01/24 07:09:35;;;;;;;1.30;0.90;;;18.80;57.80;;;;;;4952555;28;20190;-75
2024/01/24 07:12:02;;;;;;;0.98;0.75;;;18.80;57.80;;;;;;4962661;28;20193;-75
2024/01/24 07:14:27;;;;;;;1.13;0.90;;;18.80;57.70;;;;;;4964442;28;20213;-75
2024/01/24 07:16:53;;;;;;;1.85;0.70;;;18.80;57.80;;;;;;4967571;28;20286;-75
2024/01/24 07:19:19;;;;;;;1.45;0.70;;;18.80;57.80;;;;;;4951826;28;20219;-75
2024/01/24 07:21:46;;;;;;;0.85;0.70;;;18.80;57.80;;;;;;4971209;28;20193;-75
2024/01/24 07:24:12;;;;;;;0.82;0.65;;;18.80;57.80;;;;;;4968693;28;20224;-75
2024/01/24 07:26:38;;;;;;;1.05;0.65;;;18.80;57.80;;;;;;4954806;28;20309;-75
2024/01/24 07:29:04;;;;;;;1.00;0.90;;;18.80;57.80;;;;;;4957497;28;20281;-75
2024/01/24 07:31:29;;;;;;;3.40;1.02;;;18.90;57.90;;;;;;4969310;28;20192;-75
2024/01/24 07:33:55;;;;;;;0.98;0.80;;;18.80;57.90;;;;;;4970653;28;20268;-75
2024/01/24 07:36:21;;;;;;;0.82;0.60;;;18.80;57.90;;;;;;4952342;28;20202;-75
2024/01/24 07:38:47;;;;;;;1.98;0.90;;;18.80;58.00;;;;;;4957749;28;20285;-75
2024/01/24 07:41:13;;;;;;;0.90;0.70;;;18.90;58.10;;;;;;4968585;28;20258;-75
2024/01/24 07:43:40;;;;;;;1.02;0.70;;;18.80;58.00;;;;;;4967969;28;20265;-75
2024/01/24 07:46:06;;;;;;;2.25;0.82;;;18.80;58.00;;;;;;4964870;28;20222;-75
2024/01/24 07:48:32;;;;;;;0.63;0.60;;;18.80;58.00;;;;;;4967256;28;20699;-75
2024/01/24 07:50:57;;;;;;;1.73;0.95;;;18.80;58.00;;;;;;4968018;28;20199;-75
2024/01/24 07:53:23;;;;;;;1.08;0.60;;;18.80;58.00;;;;;;4967201;28;20273;-75
2024/01/24 07:55:49;;;;;;;1.08;0.73;;;18.80;58.00;;;;;;4985304;28;20217;-75
2024/01/24 07:58:15;;;;;;;1.42;0.70;;;18.80;58.00;;;;;;4971034;28;20252;-75
2024/01/24 08:00:41;;;;;;;1.08;0.98;;;18.80;58.00;;;;;;4956929;28;20195;-75
2024/01/24 08:03:07;;;;;;;1.23;0.70;;;18.80;58.00;;;;;;4974046;28;20196;-75
2024/01/24 08:05:34;;;;;;;1.38;0.90;;;18.80;58.00;;;;;;4970267;28;20224;-75
2024/01/24 08:08:01;;;;;;;0.50;0.50;;;18.80;58.10;;;;;;4972133;28;20656;-75
2024/01/24 08:10:27;;;;;;;1.60;1.00;;;18.80;58.10;;;;;;4970188;28;20285;-75
2024/01/24 08:12:53;;;;;;;1.25;0.80;;;18.80;58.10;;;;;;4985958;28;20273;-75
2024/01/24 08:15:19;;;;;;;0.98;0.90;;;18.80;58.10;;;;;;4973612;28;20599;-75
2024/01/24 08:17:45;;;;;;;1.00;0.65;;;18.80;58.10;;;;;;4984764;28;20201;-75
2024/01/24 08:20:11;;;;;;;0.70;0.70;;;18.80;58.10;;;;;;4968565;28;20190;-75
2024/01/24 08:22:37;;;;;;;2.20;0.93;;;18.80;58.10;;;;;;4971090;28;20278;-75
2024/01/24 08:25:04;;;;;;;0.98;0.73;;;18.90;58.20;;;;;;4960507;28;20700;-75
2024/01/24 08:27:30;;;;;;;0.70;0.70;;;18.80;58.10;;;;;;4957621;28;20201;-75
2024/01/24 08:29:57;;;;;;;0.70;0.70;;;18.80;58.10;;;;;;4973796;28;20198;-75
2024/01/24 08:32:23;;;;;;;2.03;0.80;;;18.80;58.20;;;;;;4970018;28;20277;-75
2024/01/24 08:34:48;;;;;;;1.02;0.93;;;18.80;58.20;;;;;;4984763;28;20227;-75
2024/01/24 08:37:14;;;;;;;1.48;0.93;;;18.80;58.20;;;;;;4954759;29;20193;-75
2024/01/24 08:39:40;;;;;;;1.23;0.70;;;18.80;58.10;;;;;;4963269;28;20200;-75
2024/01/24 08:42:06;;;;;;;0.90;0.70;;;18.80;58.20;;;;;;4960493;28;20648;-75
2024/01/24 08:44:32;;;;;;;1.15;0.90;;;18.90;58.30;;;;;;4957961;28;20221;-75
2024/01/24 08:46:58;;;;;;;1.30;0.75;;;18.90;58.20;;;;;;4969363;28;20232;-75
2024/01/24 08:49:23;;;;;;;3.03;0.98;;;18.90;58.30;;;;;;4973658;28;20204;-75
2024/01/24 08:51:49;;;;;;;2.28;0.90;;;18.90;58.30;;;;;;4974712;28;20201;-75
2024/01/24 08:54:15;;;;;;;0.70;0.70;;;18.90;58.30;;;;;;4961851;28;20206;-75
2024/01/24 08:56:41;;;;;;;0.95;0.70;;;18.90;58.30;;;;;;4954072;28;20222;-75
2024/01/24 08:59:07;;;;;;;1.42;0.90;;;18.90;58.30;;;;;;4960338;28;20244;-75
2024/01/24 09:01:32;;;;;;;1.27;0.82;;;18.90;58.30;;;;;;4973336;28;20256;-75
2024/01/24 09:03:59;;;;;;;0.75;0.60;;;18.90;58.30;;;;;;4956176;28;20202;-75
2024/01/24 09:06:25;;;;;;;1.35;0.90;;;18.90;58.30;;;;;;4955116;28;20210;-75
2024/01/24 09:08:52;;;;;;;0.80;0.80;;;18.90;58.30;;;;;;4956861;28;20216;-75
2024/01/24 09:11:19;;;;;;;1.48;1.10;;;18.90;58.30;;;;;;4952677;28;20187;-75
2024/01/24 09:13:49;;;;;;;1.27;0.80;;;18.90;58.30;;;;;;4972083;28;20254;-75
2024/01/24 09:16:15;;;;;;;1.58;1.02;;;18.90;58.40;;;;;;4970975;28;20264;-75
2024/01/24 09:18:44;;;;;;;0.98;0.80;;;18.90;58.40;;;;;;4973164;28;20204;-75
2024/01/24 09:21:10;;;;;;;1.42;0.73;;;18.90;58.40;;;;;;4966512;28;20190;-75
2024/01/24 09:23:36;;;;;;;2.42;1.00;;;18.90;58.40;;;;;;4972495;28;20233;-75
2024/01/24 09:26:03;;;;;;;1.02;0.70;;;18.90;58.40;;;;;;4956331;28;20225;-75
2024/01/24 09:28:29;;;;;;;1.25;0.70;;;18.90;58.40;;;;;;4973976;28;20190;-75
2024/01/24 09:30:55;;;;;;;1.10;1.00;;;18.90;58.40;;;;;;4955074;28;20245;-75
2024/01/24 09:33:21;;;;;;;1.27;0.82;;;19.00;58.40;;;;;;4966001;28;20189;-75
2024/01/24 09:35:47;;;;;;;0.80;0.70;;;19.00;58.40;;;;;;4965797;28;20748;-75
2024/01/24 09:38:16;;;;;;;1.20;1.10;;;19.00;59.00;;;;;;4953192;28;20198;-75
2024/01/24 09:40:42;;;;;;;1.88;0.65;;;19.00;58.40;;;;;;4977520;28;20193;-75
2024/01/24 09:43:12;;;;;;;1.15;0.85;;;19.00;58.40;;;;;;4972640;28;20213;-75
2024/01/24 09:45:39;;;;;;;2.15;0.85;;;19.00;58.50;;;;;;4972567;28;20213;-75
2024/01/24 09:48:10;;;;;;;1.02;0.80;;;19.00;58.50;;;;;;4972215;28;20198;-76
2024/01/24 09:50:36;;;;;;;1.05;0.88;;;19.00;58.50;;;;;;4972773;28;20194;-76
2024/01/24 09:53:07;;;;;;;1.35;0.80;;;19.00;58.50;;;;;;4965698;28;20217;-75
2024/01/24 09:55:33;;;;;;;1.35;0.70;;;19.00;58.50;;;;;;4966713;28;20218;-75
2024/01/24 09:58:00;;;;;;;1.08;0.88;;;19.00;58.60;;;;;;4969094;28;20252;-75
2024/01/24 10:00:25;;;;;;;0.98;0.80;;;18.90;58.50;;;;;;4968875;28;20204;-76
2024/01/24 10:02:51;;;;;;;1.23;0.90;;;18.90;58.50;;;;;;4985979;28;20197;-75
2024/01/24 10:05:19;;;;;;;0.90;0.70;;;19.00;58.60;;;;;;4968574;28;20228;-75
2024/01/24 10:07:48;;;;;;;1.35;0.80;;;19.00;58.60;;;;;;4952024;28;20624;-75
2024/01/24 10:10:15;;;;;;;1.30;0.80;;;19.00;58.60;;;;;;4955000;28;20193;-75
2024/01/24 10:12:42;;;;;;;0.93;0.75;;;19.00;58.50;;;;;;4956271;28;20244;-75
2024/01/24 10:15:10;;;;;;;1.67;1.10;;;19.00;58.60;;;;;;4967995;28;20209;-75
2024/01/24 10:17:39;;;;;;;1.75;0.65;;;19.00;58.60;;;;;;4968344;28;20196;-75
2024/01/24 10:20:08;;;;;;;1.00;0.80;;;19.00;58.60;;;;;;4955241;28;20189;-75
2024/01/24 10:22:34;;;;;;;0.90;0.65;;;19.00;58.60;;;;;;4955883;28;20202;-75
2024/01/24 10:25:00;;;;;;;1.08;0.55;;;19.00;58.60;;;;;;4953204;28;20257;-75
2024/01/24 10:27:28;;;;;;;0.82;0.65;;;19.00;58.60;;;;;;4968261;28;20205;-75
2024/01/24 10:29:54;;;;;;;0.93;0.50;;;19.00;58.60;;;;;;4974599;28;20190;-75
2024/01/24 10:32:20;;;;;;;1.02;0.60;;;19.00;58.60;;;;;;4968487;28;20211;-76
2024/01/24 10:34:49;;;;;;;0.70;0.70;;;19.00;58.60;;;;;;4968159;28;20292;-75
2024/01/24 10:37:18;;;;;;;1.73;0.60;;;19.00;58.60;;;;;;4952440;28;20608;-75
2024/01/24 10:39:44;;;;;;;1.10;0.68;;;19.00;58.60;;;;;;4965211;28;20196;-75
2024/01/24 10:42:17;;;;;;;0.50;0.50;;;19.00;58.60;;;;;;4971657;28;20194;-75
2024/01/24 10:44:48;;;;;;;0.60;0.60;;;19.00;58.60;;;;;;4948414;29;20211;-75
2024/01/24 10:47:14;;;;;;;1.02;0.80;;;19.00;58.60;;;;;;4964472;28;20202;-75
2024/01/24 10:49:41;;;;;;;1.08;0.80;;;19.00;58.60;;;;;;4971172;28;20185;-75
2024/01/24 10:52:07;;;;;;;0.77;0.75;;;19.00;58.60;;;;;;4954797;28;20200;-75
2024/01/24 10:54:37;;;;;;;1.05;0.68;;;19.10;58.80;;;;;;4967580;28;20213;-75
2024/01/24 10:57:06;;;;;;;0.82;0.70;;;19.00;58.70;;;;;;4985366;28;20276;-75
2024/01/24 10:59:37;;;;;;;0.50;0.50;;;19.00;58.70;;;;;;4955341;28;20312;-75
2024/01/24 11:02:03;;;;;;;1.23;0.80;;;19.00;58.70;;;;;;4959552;28;20193;-76
2024/01/24 11:04:29;;;;;;;1.25;0.68;;;19.00;58.80;;;;;;4955279;28;20223;-75
2024/01/24 11:07:06;;;;;;;1.85;0.80;;;19.00;58.70;;;;;;4972388;28;20228;-75
2024/01/24 11:10:12;;;;;;;0.80;0.80;;;19.00;58.70;;;;;;4971712;28;20185;-75
2024/01/24 11:12:38;;;;;;;0.55;0.50;;;19.00;58.80;;;;;;4967505;28;20229;-75
2024/01/24 11:15:05;;;;;;;1.13;0.70;;;19.00;58.80;;;;;;4983246;28;20214;-75
2024/01/24 11:17:32;;;;;;;0.90;0.73;;;19.00;58.80;;;;;;4971357;28;20208;-75
2024/01/24 11:20:03;;;;;;;0.57;0.57;;;19.00;58.80;;;;;;4967497;28;20308;-75
2024/01/24 11:22:29;;;;;;;1.10;0.70;;;19.00;58.80;;;;;;4951268;28;20201;-75
2024/01/24 11:24:55;;;;;;;1.00;0.80;;;19.00;58.80;;;;;;4986899;28;20213;-75
2024/01/24 11:27:34;;;;;;;0.63;0.63;;;19.00;58.80;;;;;;4971107;28;20604;-76
2024/01/24 11:30:06;;;;;;;1.40;0.80;;;19.00;58.80;;;;;;4985544;28;20235;-75
2024/01/24 11:32:57;;;;;;;1.05;0.80;;;19.00;58.80;;;;;;4953176;28;20194;-75
2024/01/24 11:35:45;;;;;;;0.60;0.60;;;19.00;58.80;;;;;;4970896;28;20228;-75
2024/01/24 11:38:16;;;;;;;2.08;1.00;;;19.10;58.90;;;;;;4970430;28;20189;-75
2024/01/24 11:40:50;;;;;;;0.95;0.80;;;19.00;58.80;;;;;;4971599;28;20202;-75
2024/01/24 11:43:32;;;;;;;0.63;0.50;;;19.10;58.90;;;;;;4990828;28;20201;-75
2024/01/24 11:46:06;;;;;;;0.73;0.60;;;19.10;58.80;;;;;;4970407;28;20233;-75
2024/01/24 11:48:36;;;;;;;1.75;0.90;;;19.10;58.90;;;;;;4968722;28;20680;-76
2024/01/24 11:51:11;;;;;;;0.77;0.70;;;19.10;58.90;;;;;;4981003;28;20186;-75
2024/01/24 11:53:37;;;;;;;0.70;0.70;;;19.00;58.80;;;;;;4971057;28;20257;-75
2024/01/24 11:56:05;;;;;;;0.60;0.60;;;19.10;59.00;;;;;;4974167;28;20217;-74
2024/01/24 11:58:31;;;;;;;1.30;0.80;;;19.10;59.00;;;;;;4975613;28;20272;-75
2024/01/24 12:01:04;;;;;;;0.70;0.70;;;19.10;59.00;;;;;;4982813;28;20201;-75
2024/01/24 12:03:31;;;;;;;1.42;0.60;;;19.10;59.00;;;;;;4970199;28;20209;-75
2024/01/24 12:05:58;;;;;;;0.60;0.60;;;19.10;59.00;;;;;;4974190;28;20222;-75
2024/01/24 12:08:24;;;;;;;0.73;0.70;;;19.10;59.00;;;;;;4969821;28;20220;-75
2024/01/24 12:10:50;;;;;;;0.88;0.65;;;19.10;59.00;;;;;;4966828;28;20237;-76
2024/01/24 12:13:20;;;;;;;0.85;0.75;;;19.10;59.00;;;;;;4956475;28;20261;-75
2024/01/24 12:15:47;;;;;;;0.70;0.70;;;19.00;58.90;;;;;;4986964;28;20225;-75
2024/01/24 12:18:18;;;;;;;0.82;0.70;;;19.00;59.00;;;;;;4973516;28;20232;-75
2024/01/24 12:20:50;;;;;;;0.63;0.57;;;19.00;59.00;;;;;;4951295;29;20217;-75
2024/01/24 12:23:17;;;;;;;1.88;0.68;;;19.00;59.00;;;;;;4963835;28;20229;-76
2024/01/24 12:25:44;;;;;;;0.43;0.43;;;19.00;59.00;;;;;;4975387;28;20217;-76
2024/01/24 12:28:11;;;;;;;0.70;0.60;;;19.00;59.60;;;;;;4985669;28;20640;-75
2024/01/24 12:30:37;;;;;;;0.77;0.73;;;19.00;59.00;;;;;;4973661;28;20212;-75
2024/01/24 12:33:04;;;;;;;1.00;0.90;;;19.10;59.10;;;;;;4976409;28;20240;-76
2024/01/24 12:35:31;;;;;;;0.57;0.57;;;19.00;59.00;;;;;;4957686;28;20220;-75
2024/01/24 12:38:03;;;;;;;0.77;0.77;;;19.00;59.20;;;;;;4957683;28;20194;-74
2024/01/24 12:40:31;;;;;;;1.05;0.80;;;19.00;59.10;;;;;;4962143;28;20201;-73
2024/01/24 12:42:58;;;;;;;0.82;0.80;;;19.10;59.20;;;;;;4969323;28;20202;-74
2024/01/24 12:45:26;;;;;;;1.67;0.70;;;19.00;59.10;;;;;;4972309;28;20707;-74